sensor_id;sensor_type;location;lat;lon;timestamp;pressure;altitude;pressure_sealevel;temperature;humidity
81352;BME280;70809;52.184;13.422;2024-03-23T00:54:22;100489.34;;;8.05;100.00
81352;BME280;70809;52.184;13.422;2024-03-23T00:55:23;100500.66;;;8.03;100.00
81352;BME280;70809;52.184;13.422;2024-03-23T00:56:23;100496.69;;;7.79;100.00
81352;BME280;70809;52.184;13.422;2024-03-23T00:57:24;100488.53;;;7.65;100.00
81352;BME280;70809;52.184;13.422;2024-03-23T00:58:25;100480.84;;;7.75;100.00
81352;BME280;70809;52.184;13.422;2024-03-23T00:59:26;100484.91;;;7.60;100.00
81352;BME280;70809;52.184;13.422;2024-03-23T01:00:26;100485.47;;;7.45;100.00
81352;BME280;70809;52.184;13.422;2024-03-23T01:01:28;100491.91;;;7.60;100.00
81352;BME280;70809;52.184;13.422;2024-03-23T01:02:29;100477.56;;;7.86;100.00
81352;BME280;70809;52.184;13.422;2024-03-23T01:03:30;100476.06;;;7.99;100.00
81352;BME280;70809;52.184;13.422;2024-03-23T01:04:30;100479.69;;;8.04;100.00
81352;BME280;70809;52.184;13.422;2024-03-23T01:05:31;100478.09;;;8.14;100.00
81352;BME280;70809;52.184;13.422;2024-03-23T01:06:32;100474.75;;;8.21;100.00
81352;BME280;70809;52.184;13.422;2024-03-23T01:07:34;100482.69;;;8.24;100.00
81352;BME280;70809;52.184;13.422;2024-03-23T01:08:34;100488.72;;;8.20;99.51
81352;BME280;70809;52.184;13.422;2024-03-23T01:09:35;100476.53;;;8.25;99.43
81352;BME280;70809;52.184;13.422;2024-03-23T01:10:36;100479.22;;;8.27;98.62
81352;BME280;70809;52.184;13.422;2024-03-23T01:11:37;100473.84;;;8.20;99.24
81352;BME280;70809;52.184;13.422;2024-03-23T01:12:37;100462.41;;;8.18;99.53
81352;BME280;70809;52.184;13.422;2024-03-23T01:13:38;100458.03;;;8.19;99.62
81352;BME280;70809;52.184;13.422;2024-03-23T01:14:39;100468.75;;;8.31;100.00
81352;BME280;70809;52.184;13.422;2024-03-23T01:15:39;100456.53;;;8.33;99.97
81352;BME280;70809;52.184;13.422;2024-03-23T01:16:40;100462.63;;;8.31;99.30
81352;BME280;70809;52.184;13.422;2024-03-23T01:17:40;100454.72;;;8.31;98.50
81352;BME280;70809;52.184;13.422;2024-03-23T01:18:41;100450.31;;;8.28;99.39
81352;BME280;70809;52.184;13.422;2024-03-23T01:19:42;100445.94;;;8.29;98.80
81352;BME280;70809;52.184;13.422;2024-03-23T01:20:42;100446.78;;;8.28;99.37
81352;BME280;70809;52.184;13.422;2024-03-23T01:21:43;100451.00;;;8.19;99.01
81352;BME280;70809;52.184;13.422;2024-03-23T01:22:45;100446.63;;;8.20;99.83
81352;BME280;70809;52.184;13.422;2024-03-23T01:23:46;100437.06;;;8.23;99.68
81352;BME280;70809;52.184;13.422;2024-03-23T01:24:47;100434.63;;;8.34;99.77
81352;BME280;70809;52.184;13.422;2024-03-23T01:25:51;100431.34;;;8.46;99.79
81352;BME280;70809;52.184;13.422;2024-03-23T01:26:52;100427.09;;;8.54;99.26
81352;BME280;70809;52.184;13.422;2024-03-23T01:27:53;100429.00;;;8.61;99.09
81352;BME280;70809;52.184;13.422;2024-03-23T01:28:53;100416.78;;;8.66;98.43
81352;BME280;70809;52.184;13.422;2024-03-23T01:29:54;100412.44;;;8.71;98.23
81352;BME280;70809;52.184;13.422;2024-03-23T01:30:55;100406.44;;;8.78;98.13
81352;BME280;70809;52.184;13.422;2024-03-23T01:31:55;100414.41;;;8.83;98.02
81352;BME280;70809;52.184;13.422;2024-03-23T01:32:56;100408.19;;;8.78;96.28
81352;BME280;70809;52.184;13.422;2024-03-23T01:33:57;100410.50;;;8.60;96.36
81352;BME280;70809;52.184;13.422;2024-03-23T01:34:57;100419.91;;;8.44;96.87
81352;BME280;70809;52.184;13.422;2024-03-23T01:35:58;100411.06;;;8.39;97.65
81352;BME280;70809;52.184;13.422;2024-03-23T01:36:59;100420.91;;;8.50;98.25
81352;BME280;70809;52.184;13.422;2024-03-23T01:38:02;100424.59;;;8.60;97.62
81352;BME280;70809;52.184;13.422;2024-03-23T01:39:02;100418.47;;;8.63;97.36
81352;BME280;70809;52.184;13.422;2024-03-23T01:40:04;100419.38;;;8.65;97.23
81352;BME280;70809;52.184;13.422;2024-03-23T01:41:05;100420.22;;;8.64;96.89
81352;BME280;70809;52.184;13.422;2024-03-23T01:42:05;100423.84;;;8.69;96.83
81352;BME280;70809;52.184;13.422;2024-03-23T01:43:07;100421.34;;;8.78;96.98
81352;BME280;70809;52.184;13.422;2024-03-23T01:44:08;100422.16;;;8.72;95.86
81352;BME280;70809;52.184;13.422;2024-03-23T01:45:09;100415.91;;;8.67;96.19
81352;BME280;70809;52.184;13.422;2024-03-23T01:46:10;100408.72;;;8.56;96.04
81352;BME280;70809;52.184;13.422;2024-03-23T01:47:11;100412.22;;;8.55;96.32
81352;BME280;70809;52.184;13.422;2024-03-23T01:48:12;100409.59;;;8.56;96.66
81352;BME280;70809;52.184;13.422;2024-03-23T01:49:12;100406.81;;;8.48;96.10
81352;BME280;70809;52.184;13.422;2024-03-23T01:50:14;100412.06;;;8.47;96.30
81352;BME280;70809;52.184;13.422;2024-03-23T01:51:15;100409.44;;;8.48;96.63
81352;BME280;70809;52.184;13.422;2024-03-23T01:52:15;100407.63;;;8.44;96.66
81352;BME280;70809;52.184;13.422;2024-03-23T01:53:18;100411.25;;;8.51;97.15
81352;BME280;70809;52.184;13.422;2024-03-23T01:54:18;100402.50;;;8.52;96.56
81352;BME280;70809;52.184;13.422;2024-03-23T01:55:19;100393.78;;;8.56;96.52
81352;BME280;70809;52.184;13.422;2024-03-23T01:56:20;100400.13;;;8.67;96.42
81352;BME280;70809;52.184;13.422;2024-03-23T01:57:21;100393.19;;;8.72;96.33
81352;BME280;70809;52.184;13.422;2024-03-23T01:58:22;100394.16;;;8.81;96.20
81352;BME280;70809;52.184;13.422;2024-03-23T01:59:23;100384.56;;;8.84;95.92
81352;BME280;70809;52.184;13.422;2024-03-23T02:00:24;100388.09;;;8.86;95.60
81352;BME280;70809;52.184;13.422;2024-03-23T02:01:25;100381.97;;;8.89;95.49
81352;BME280;70809;52.184;13.422;2024-03-23T02:02:25;100385.56;;;8.94;95.37
81352;BME280;70809;52.184;13.422;2024-03-23T02:03:27;100389.06;;;8.93;94.43
81352;BME280;70809;52.184;13.422;2024-03-23T02:04:28;100393.28;;;8.78;94.37
81352;BME280;70809;52.184;13.422;2024-03-23T02:05:29;100387.16;;;8.81;94.93
81352;BME280;70809;52.184;13.422;2024-03-23T02:06:30;100379.31;;;8.84;94.94
81352;BME280;70809;52.184;13.422;2024-03-23T02:07:31;100388.97;;;8.84;94.25
81352;BME280;70809;52.184;13.422;2024-03-23T02:08:33;100380.75;;;8.65;94.44
81352;BME280;70809;52.184;13.422;2024-03-23T02:09:34;100372.72;;;8.55;94.98
81352;BME280;70809;52.184;13.422;2024-03-23T02:10:35;100387.53;;;8.49;95.52
81352;BME280;70809;52.184;13.422;2024-03-23T02:11:36;100373.34;;;8.40;95.88
81352;BME280;70809;52.184;13.422;2024-03-23T02:12:37;100379.28;;;8.30;96.33
81352;BME280;70809;52.184;13.422;2024-03-23T02:13:37;100387.94;;;8.22;97.33
81352;BME280;70809;52.184;13.422;2024-03-23T02:14:38;100377.41;;;8.22;97.90
81352;BME280;70809;52.184;13.422;2024-03-23T02:15:39;100376.66;;;8.31;97.87
81352;BME280;70809;52.184;13.422;2024-03-23T02:16:39;100368.16;;;8.44;97.79
81352;BME280;70809;52.184;13.422;2024-03-23T02:17:40;100378.72;;;8.47;97.24
81352;BME280;70809;52.184;13.422;2024-03-23T02:18:41;100368.94;;;8.39;97.58
81352;BME280;70809;52.184;13.422;2024-03-23T02:19:42;100366.31;;;8.39;98.24
81352;BME280;70809;52.184;13.422;2024-03-23T02:20:42;100363.88;;;8.51;98.01
81352;BME280;70809;52.184;13.422;2024-03-23T02:21:43;100363.09;;;8.57;97.53
81352;BME280;70809;52.184;13.422;2024-03-23T02:22:44;100362.19;;;8.56;96.94
81352;BME280;70809;52.184;13.422;2024-03-23T02:23:46;100354.13;;;8.44;97.26
81352;BME280;70809;52.184;13.422;2024-03-23T02:24:46;100361.03;;;8.39;97.34
81352;BME280;70809;52.184;13.422;2024-03-23T02:25:47;100366.00;;;8.22;97.68
81352;BME280;70809;52.184;13.422;2024-03-23T02:26:48;100368.50;;;8.14;98.22
81352;BME280;70809;52.184;13.422;2024-03-23T02:27:48;100363.41;;;8.25;98.55
81352;BME280;70809;52.184;13.422;2024-03-23T02:28:49;100376.59;;;8.27;97.79
81352;BME280;70809;52.184;13.422;2024-03-23T02:29:50;100372.06;;;8.19;97.29
81352;BME280;70809;52.184;13.422;2024-03-23T02:30:51;100357.16;;;8.20;98.07
81352;BME280;70809;52.184;13.422;2024-03-23T02:31:51;100371.16;;;8.17;97.89
81352;BME280;70809;52.184;13.422;2024-03-23T02:32:52;100363.44;;;8.27;98.07
81352;BME280;70809;52.184;13.422;2024-03-23T02:33:53;100360.13;;;8.37;97.69
81352;BME280;70809;52.184;13.422;2024-03-23T02:34:53;100358.50;;;8.43;97.55
81352;BME280;70809;52.184;13.422;2024-03-23T02:35:56;100350.53;;;8.40;97.04
81352;BME280;70809;52.184;13.422;2024-03-23T02:36:57;100355.66;;;8.34;97.50
81352;BME280;70809;52.184;13.422;2024-03-23T02:37:58;100358.22;;;8.30;97.84
81352;BME280;70809;52.184;13.422;2024-03-23T02:39:00;100351.13;;;8.25;97.99
81352;BME280;70809;52.184;13.422;2024-03-23T02:40:00;100348.47;;;8.22;98.56
81352;BME280;70809;52.184;13.422;2024-03-23T02:41:02;100346.00;;;8.32;98.52
81352;BME280;70809;52.184;13.422;2024-03-23T02:42:03;100342.56;;;8.36;98.07
81352;BME280;70809;52.184;13.422;2024-03-23T02:43:04;100336.97;;;8.19;97.82
81352;BME280;70809;52.184;13.422;2024-03-23T02:44:05;100347.41;;;8.13;98.56
81352;BME280;70809;52.184;13.422;2024-03-23T02:45:06;100359.56;;;8.05;98.98
81352;BME280;70809;52.184;13.422;2024-03-23T02:46:07;100356.84;;;8.02;97.84
81352;BME280;70809;52.184;13.422;2024-03-23T02:47:07;100365.78;;;8.10;98.29
81352;BME280;70809;52.184;13.422;2024-03-23T02:48:08;100349.22;;;8.15;98.89
81352;BME280;70809;52.184;13.422;2024-03-23T02:49:09;100344.63;;;8.04;98.87
81352;BME280;70809;52.184;13.422;2024-03-23T02:50:09;100349.06;;;8.06;99.43
81352;BME280;70809;52.184;13.422;2024-03-23T02:51:10;100331.69;;;8.17;99.48
81352;BME280;70809;52.184;13.422;2024-03-23T02:52:11;100340.59;;;8.25;98.97
81352;BME280;70809;52.184;13.422;2024-03-23T02:53:11;100339.59;;;8.17;98.60
81352;BME280;70809;52.184;13.422;2024-03-23T02:54:14;100337.88;;;8.19;99.23
81352;BME280;70809;52.184;13.422;2024-03-23T02:55:14;100337.06;;;8.22;98.36
81352;BME280;70809;52.184;13.422;2024-03-23T02:56:15;100322.06;;;8.19;98.62
81352;BME280;70809;52.184;13.422;2024-03-23T02:57:16;100315.16;;;8.24;98.88
81352;BME280;70809;52.184;13.422;2024-03-23T02:58:16;100327.59;;;8.35;98.73
81352;BME280;70809;52.184;13.422;2024-03-23T02:59:17;100314.53;;;8.38;98.03
81352;BME280;70809;52.184;13.422;2024-03-23T03:00:18;100314.63;;;8.44;98.22
81352;BME280;70809;52.184;13.422;2024-03-23T03:01:18;100305.06;;;8.50;98.17
81352;BME280;70809;52.184;13.422;2024-03-23T03:02:20;100306.03;;;8.57;97.80
81352;BME280;70809;52.184;13.422;2024-03-23T03:03:20;100302.59;;;8.61;97.67
81352;BME280;70809;52.184;13.422;2024-03-23T03:04:21;100305.25;;;8.64;97.12
81352;BME280;70809;52.184;13.422;2024-03-23T03:05:22;100295.66;;;8.66;97.06
81352;BME280;70809;52.184;13.422;2024-03-23T03:06:23;100305.34;;;8.69;96.61
81352;BME280;70809;52.184;13.422;2024-03-23T03:07:24;100310.47;;;8.60;95.72
81352;BME280;70809;52.184;13.422;2024-03-23T03:08:25;100307.88;;;8.61;96.24
81352;BME280;70809;52.184;13.422;2024-03-23T03:09:27;100314.09;;;8.66;95.71
81352;BME280;70809;52.184;13.422;2024-03-23T03:10:28;100307.91;;;8.64;95.97
81352;BME280;70809;52.184;13.422;2024-03-23T03:11:28;100311.47;;;8.69;95.72
81352;BME280;70809;52.184;13.422;2024-03-23T03:12:29;100303.66;;;8.75;95.69
81352;BME280;70809;52.184;13.422;2024-03-23T03:13:29;100306.31;;;8.75;95.23
81352;BME280;70809;52.184;13.422;2024-03-23T03:14:30;100304.56;;;8.76;94.96
81352;BME280;70809;52.184;13.422;2024-03-23T03:15:31;100297.53;;;8.76;94.79
81352;BME280;70809;52.184;13.422;2024-03-23T03:16:31;100308.03;;;8.72;94.48
81352;BME280;70809;52.184;13.422;2024-03-23T03:17:32;100304.19;;;8.51;94.47
81352;BME280;70809;52.184;13.422;2024-03-23T03:18:33;100302.16;;;8.35;95.24
81352;BME280;70809;52.184;13.422;2024-03-23T03:19:33;100301.97;;;8.21;96.24
81352;BME280;70809;52.184;13.422;2024-03-23T03:20:34;100303.63;;;8.16;96.63
81352;BME280;70809;52.184;13.422;2024-03-23T03:21:35;100297.34;;;8.08;97.43
81352;BME280;70809;52.184;13.422;2024-03-23T03:22:35;100292.16;;;8.13;97.23
81352;BME280;70809;52.184;13.422;2024-03-23T03:23:36;100296.56;;;8.14;96.45
81352;BME280;70809;52.184;13.422;2024-03-23T03:24:38;100298.25;;;8.09;95.99
81352;BME280;70809;52.184;13.422;2024-03-23T03:25:39;100302.69;;;8.13;96.59
81352;BME280;70809;52.184;13.422;2024-03-23T03:26:39;100295.84;;;8.22;96.70
81352;BME280;70809;52.184;13.422;2024-03-23T03:27:40;100294.94;;;8.22;97.36
81352;BME280;70809;52.184;13.422;2024-03-23T03:28:41;100295.81;;;8.21;97.65
81352;BME280;70809;52.184;13.422;2024-03-23T03:29:41;100288.81;;;8.21;98.02
81352;BME280;70809;52.184;13.422;2024-03-23T03:30:42;100293.19;;;8.22;98.10
81352;BME280;70809;52.184;13.422;2024-03-23T03:31:43;100281.81;;;8.23;98.20
81352;BME280;70809;52.184;13.422;2024-03-23T03:32:44;100287.88;;;8.19;98.54
81352;BME280;70809;52.184;13.422;2024-03-23T03:33:44;100287.94;;;8.22;98.50
81352;BME280;70809;52.184;13.422;2024-03-23T03:34:45;100293.22;;;8.25;98.21
81352;BME280;70809;52.184;13.422;2024-03-23T03:35:46;100293.19;;;8.22;97.89
81352;BME280;70809;52.184;13.422;2024-03-23T03:36:47;100290.41;;;8.13;97.85
81352;BME280;70809;52.184;13.422;2024-03-23T03:37:48;100288.72;;;8.15;98.55
81352;BME280;70809;52.184;13.422;2024-03-23T03:38:48;100283.56;;;8.24;98.49
81352;BME280;70809;52.184;13.422;2024-03-23T03:39:50;100285.41;;;8.30;98.27
81352;BME280;70809;52.184;13.422;2024-03-23T03:40:51;100284.72;;;8.39;97.96
81352;BME280;70809;52.184;13.422;2024-03-23T03:41:52;100280.44;;;8.45;97.78
81352;BME280;70809;52.184;13.422;2024-03-23T03:42:53;100289.97;;;8.39;96.39
81352;BME280;70809;52.184;13.422;2024-03-23T03:43:53;100280.91;;;8.21;96.69
81352;BME280;70809;52.184;13.422;2024-03-23T03:44:54;100281.59;;;8.10;97.46
81352;BME280;70809;52.184;13.422;2024-03-23T03:45:56;100282.31;;;8.01;98.12
81352;BME280;70809;52.184;13.422;2024-03-23T03:46:57;100273.53;;;8.01;98.87
81352;BME280;70809;52.184;13.422;2024-03-23T03:47:58;100276.28;;;8.08;98.62
81352;BME280;70809;52.184;13.422;2024-03-23T03:48:59;100272.06;;;8.16;98.86
81352;BME280;70809;52.184;13.422;2024-03-23T03:49:59;100275.66;;;8.21;98.57
81352;BME280;70809;52.184;13.422;2024-03-23T03:51:00;100264.28;;;8.25;98.52
81352;BME280;70809;52.184;13.422;2024-03-23T03:52:01;100256.38;;;8.25;98.57
81352;BME280;70809;52.184;13.422;2024-03-23T03:53:01;100269.47;;;8.19;96.99
81352;BME280;70809;52.184;13.422;2024-03-23T03:54:02;100268.47;;;8.11;96.93
81352;BME280;70809;52.184;13.422;2024-03-23T03:55:12;100267.25;;;7.91;97.16
81352;BME280;70809;52.184;13.422;2024-03-23T03:56:13;100276.59;;;7.73;98.08
81352;BME280;70809;52.184;13.422;2024-03-23T03:57:13;100269.47;;;7.66;99.00
81352;BME280;70809;52.184;13.422;2024-03-23T03:58:14;100259.00;;;7.69;99.79
81352;BME280;70809;52.184;13.422;2024-03-23T03:59:15;100266.25;;;7.84;99.92
81352;BME280;70809;52.184;13.422;2024-03-23T04:00:16;100261.25;;;7.98;99.67
81352;BME280;70809;52.184;13.422;2024-03-23T04:01:17;100249.16;;;8.09;99.28
81352;BME280;70809;52.184;13.422;2024-03-23T04:02:17;100257.00;;;8.08;99.18
81352;BME280;70809;52.184;13.422;2024-03-23T04:03:18;100256.13;;;8.07;98.88
81352;BME280;70809;52.184;13.422;2024-03-23T04:04:18;100254.50;;;8.15;99.21
81352;BME280;70809;52.184;13.422;2024-03-23T04:05:21;100254.44;;;8.12;98.69
81352;BME280;70809;52.184;13.422;2024-03-23T04:06:22;100238.72;;;8.15;98.25
81352;BME280;70809;52.184;13.422;2024-03-23T04:07:22;100240.41;;;8.10;98.46
81352;BME280;70809;52.184;13.422;2024-03-23T04:08:23;100251.78;;;8.11;99.08
81352;BME280;70809;52.184;13.422;2024-03-23T04:09:24;100251.88;;;8.17;99.01
81352;BME280;70809;52.184;13.422;2024-03-23T04:10:26;100249.41;;;8.26;98.49
81352;BME280;70809;52.184;13.422;2024-03-23T04:11:27;100242.31;;;8.20;97.61
81352;BME280;70809;52.184;13.422;2024-03-23T04:12:27;100253.72;;;8.21;98.23
81352;BME280;70809;52.184;13.422;2024-03-23T04:13:28;100261.47;;;8.13;96.80
81352;BME280;70809;52.184;13.422;2024-03-23T04:14:29;100259.22;;;7.82;96.87
81352;BME280;70809;52.184;13.422;2024-03-23T04:15:30;100267.47;;;7.52;98.87
81352;BME280;70809;52.184;13.422;2024-03-23T04:16:33;100257.06;;;7.59;99.82
81352;BME280;70809;52.184;13.422;2024-03-23T04:17:35;100252.09;;;7.75;99.89
81352;BME280;70809;52.184;13.422;2024-03-23T04:18:35;100252.22;;;7.82;99.92
81352;BME280;70809;52.184;13.422;2024-03-23T04:19:36;100243.34;;;7.76;99.69
81352;BME280;70809;52.184;13.422;2024-03-23T04:20:37;100253.47;;;7.54;99.58
81352;BME280;70809;52.184;13.422;2024-03-23T04:21:37;100247.56;;;7.67;100.00
81352;BME280;70809;52.184;13.422;2024-03-23T04:22:38;100244.34;;;7.85;100.00
81352;BME280;70809;52.184;13.422;2024-03-23T04:23:39;100263.00;;;7.99;100.00
81352;BME280;70809;52.184;13.422;2024-03-23T04:24:39;100272.84;;;8.11;99.95
81352;BME280;70809;52.184;13.422;2024-03-23T04:25:41;100263.28;;;8.17;99.50
81352;BME280;70809;52.184;13.422;2024-03-23T04:26:45;100264.94;;;8.09;98.12
81352;BME280;70809;52.184;13.422;2024-03-23T04:27:45;100269.16;;;7.99;98.53
81352;BME280;70809;52.184;13.422;2024-03-23T04:28:46;100258.84;;;8.13;98.89
81352;BME280;70809;52.184;13.422;2024-03-23T04:29:47;100263.19;;;8.10;97.98
81352;BME280;70809;52.184;13.422;2024-03-23T04:30:48;100252.50;;;8.01;98.20
81352;BME280;70809;52.184;13.422;2024-03-23T04:31:48;100260.63;;;8.14;98.15
81352;BME280;70809;52.184;13.422;2024-03-23T04:32:49;100264.88;;;8.06;98.38
81352;BME280;70809;52.184;13.422;2024-03-23T04:33:50;100257.09;;;8.14;97.90
81352;BME280;70809;52.184;13.422;2024-03-23T04:34:51;100252.75;;;8.16;98.42
81352;BME280;70809;52.184;13.422;2024-03-23T04:35:51;100257.13;;;8.15;97.84
81352;BME280;70809;52.184;13.422;2024-03-23T04:36:52;100251.97;;;8.21;98.56
81352;BME280;70809;52.184;13.422;2024-03-23T04:37:53;100249.38;;;8.24;97.56
81352;BME280;70809;52.184;13.422;2024-03-23T04:38:53;100242.41;;;8.27;97.89
81352;BME280;70809;52.184;13.422;2024-03-23T04:39:54;100242.59;;;8.37;97.65
81352;BME280;70809;52.184;13.422;2024-03-23T04:40:56;100237.38;;;8.42;97.40
81352;BME280;70809;52.184;13.422;2024-03-23T04:41:57;100245.31;;;8.45;97.23
81352;BME280;70809;52.184;13.422;2024-03-23T04:42:58;100242.75;;;8.49;97.44
81352;BME280;70809;52.184;13.422;2024-03-23T04:43:59;100228.75;;;8.52;96.94
81352;BME280;70809;52.184;13.422;2024-03-23T04:44:59;100228.53;;;8.37;96.39
81352;BME280;70809;52.184;13.422;2024-03-23T04:46:00;100230.88;;;8.20;96.75
81352;BME280;70809;52.184;13.422;2024-03-23T04:47:01;100231.53;;;8.05;97.86
81352;BME280;70809;52.184;13.422;2024-03-23T04:48:01;100221.84;;;8.03;97.49
81352;BME280;70809;52.184;13.422;2024-03-23T04:49:02;100219.25;;;8.04;97.98
81352;BME280;70809;52.184;13.422;2024-03-23T04:50:03;100223.66;;;8.07;98.18
81352;BME280;70809;52.184;13.422;2024-03-23T04:51:04;100224.53;;;8.07;98.65
81352;BME280;70809;52.184;13.422;2024-03-23T04:52:05;100230.75;;;8.12;98.24
81352;BME280;70809;52.184;13.422;2024-03-23T04:53:06;100235.25;;;8.19;97.70
81352;BME280;70809;52.184;13.422;2024-03-23T04:54:06;100237.22;;;8.33;97.84
81352;BME280;70809;52.184;13.422;2024-03-23T04:55:07;100239.88;;;8.34;97.71
81352;BME280;70809;52.184;13.422;2024-03-23T04:56:09;100238.09;;;8.33;97.41
81352;BME280;70809;52.184;13.422;2024-03-23T04:57:10;100241.50;;;8.26;96.02
81352;BME280;70809;52.184;13.422;2024-03-23T04:58:10;100236.25;;;8.26;96.48
81352;BME280;70809;52.184;13.422;2024-03-23T04:59:11;100230.00;;;8.19;96.76
81352;BME280;70809;52.184;13.422;2024-03-23T05:00:13;100229.06;;;8.14;96.88
81352;BME280;70809;52.184;13.422;2024-03-23T05:01:13;100218.66;;;8.25;97.42
81352;BME280;70809;52.184;13.422;2024-03-23T05:02:14;100211.69;;;8.27;96.97
81352;BME280;70809;52.184;13.422;2024-03-23T05:03:15;100214.44;;;8.35;97.09
81352;BME280;70809;52.184;13.422;2024-03-23T05:04:16;100203.88;;;8.32;96.28
81352;BME280;70809;52.184;13.422;2024-03-23T05:05:17;100203.75;;;8.25;95.96
81352;BME280;70809;52.184;13.422;2024-03-23T05:06:17;100202.06;;;8.28;96.36
81352;BME280;70809;52.184;13.422;2024-03-23T05:07:18;100214.19;;;8.16;95.82
81352;BME280;70809;52.184;13.422;2024-03-23T05:08:19;100203.66;;;7.62;96.81
81352;BME280;70809;52.184;13.422;2024-03-23T05:09:19;100191.78;;;7.34;99.39
81352;BME280;70809;52.184;13.422;2024-03-23T05:10:20;100188.25;;;7.33;100.00
81352;BME280;70809;52.184;13.422;2024-03-23T05:11:22;100184.28;;;7.57;100.00
81352;BME280;70809;52.184;13.422;2024-03-23T05:12:23;100174.91;;;7.72;100.00
81352;BME280;70809;52.184;13.422;2024-03-23T05:13:23;100172.97;;;7.61;99.72
81352;BME280;70809;52.184;13.422;2024-03-23T05:14:24;100178.81;;;7.44;100.00
81352;BME280;70809;52.184;13.422;2024-03-23T05:15:25;100175.28;;;7.41;100.00
81352;BME280;70809;52.184;13.422;2024-03-23T05:16:26;100166.41;;;7.34;100.00
81352;BME280;70809;52.184;13.422;2024-03-23T05:17:26;100172.56;;;7.35;100.00
81352;BME280;70809;52.184;13.422;2024-03-23T05:18:27;100172.75;;;7.47;100.00
81352;BME280;70809;52.184;13.422;2024-03-23T05:19:27;100173.66;;;7.49;100.00
81352;BME280;70809;52.184;13.422;2024-03-23T05:20:28;100177.44;;;7.65;100.00
81352;BME280;70809;52.184;13.422;2024-03-23T05:21:29;100174.34;;;7.39;100.00
81352;BME280;70809;52.184;13.422;2024-03-23T05:22:29;100181.63;;;7.54;100.00
81352;BME280;70809;52.184;13.422;2024-03-23T05:23:30;100184.47;;;7.67;100.00
81352;BME280;70809;52.184;13.422;2024-03-23T05:24:31;100182.81;;;7.72;100.00
81352;BME280;70809;52.184;13.422;2024-03-23T05:25:31;100184.28;;;7.55;100.00
81352;BME280;70809;52.184;13.422;2024-03-23T05:26:34;100173.47;;;7.38;100.00
81352;BME280;70809;52.184;13.422;2024-03-23T05:27:35;100180.44;;;7.35;100.00
81352;BME280;70809;52.184;13.422;2024-03-23T05:28:36;100177.50;;;7.18;100.00
81352;BME280;70809;52.184;13.422;2024-03-23T05:29:37;100176.22;;;6.98;100.00
81352;BME280;70809;52.184;13.422;2024-03-23T05:30:37;100182.34;;;6.97;100.00
81352;BME280;70809;52.184;13.422;2024-03-23T05:31:38;100184.00;;;6.93;100.00
81352;BME280;70809;52.184;13.422;2024-03-23T05:32:39;100182.69;;;7.15;100.00
81352;BME280;70809;52.184;13.422;2024-03-23T05:33:39;100177.22;;;7.04;100.00
81352;BME280;70809;52.184;13.422;2024-03-23T05:34:40;100175.16;;;6.88;100.00
81352;BME280;70809;52.184;13.422;2024-03-23T05:35:41;100180.28;;;6.82;100.00
81352;BME280;70809;52.184;13.422;2024-03-23T05:36:41;100173.75;;;6.60;100.00
81352;BME280;70809;52.184;13.422;2024-03-23T05:37:42;100179.16;;;6.68;100.00
81352;BME280;70809;52.184;13.422;2024-03-23T05:38:42;100171.75;;;6.92;100.00
81352;BME280;70809;52.184;13.422;2024-03-23T05:39:43;100171.84;;;6.97;100.00
81352;BME280;70809;52.184;13.422;2024-03-23T05:40:53;100167.16;;;6.80;100.00
81352;BME280;70809;52.184;13.422;2024-03-23T05:41:55;100161.34;;;6.97;100.00
81352;BME280;70809;52.184;13.422;2024-03-23T05:42:55;100149.31;;;7.09;100.00
81352;BME280;70809;52.184;13.422;2024-03-23T05:43:56;100153.78;;;7.13;100.00
81352;BME280;70809;52.184;13.422;2024-03-23T05:44:57;100148.75;;;7.27;100.00
81352;BME280;70809;52.184;13.422;2024-03-23T05:45:59;100155.91;;;7.34;100.00
81352;BME280;70809;52.184;13.422;2024-03-23T05:47:00;100148.03;;;7.34;100.00
81352;BME280;70809;52.184;13.422;2024-03-23T05:48:00;100156.69;;;7.29;100.00
81352;BME280;70809;52.184;13.422;2024-03-23T05:49:01;100153.28;;;7.36;100.00
81352;BME280;70809;52.184;13.422;2024-03-23T05:50:02;100152.50;;;7.40;100.00
81352;BME280;70809;52.184;13.422;2024-03-23T05:51:03;100141.91;;;7.35;100.00
81352;BME280;70809;52.184;13.422;2024-03-23T05:52:04;100142.75;;;7.34;100.00
81352;BME280;70809;52.184;13.422;2024-03-23T05:53:05;100142.81;;;7.39;100.00
81352;BME280;70809;52.184;13.422;2024-03-23T05:54:05;100148.03;;;7.36;100.00
81352;BME280;70809;52.184;13.422;2024-03-23T05:55:07;100135.50;;;7.19;100.00
81352;BME280;70809;52.184;13.422;2024-03-23T05:56:07;100130.94;;;7.11;100.00
81352;BME280;70809;52.184;13.422;2024-03-23T05:57:10;100123.03;;;7.09;100.00
81352;BME280;70809;52.184;13.422;2024-03-23T05:58:11;100128.31;;;7.09;100.00
81352;BME280;70809;52.184;13.422;2024-03-23T05:59:12;100112.41;;;7.02;100.00
81352;BME280;70809;52.184;13.422;2024-03-23T06:00:13;100106.19;;;6.95;100.00
81352;BME280;70809;52.184;13.422;2024-03-23T06:01:13;100107.19;;;7.03;100.00
81352;BME280;70809;52.184;13.422;2024-03-23T06:02:14;100098.25;;;6.93;100.00
81352;BME280;70809;52.184;13.422;2024-03-23T06:03:15;100106.56;;;6.70;100.00
81352;BME280;70809;52.184;13.422;2024-03-23T06:04:15;100102.97;;;6.64;100.00
81352;BME280;70809;52.184;13.422;2024-03-23T06:05:16;100102.06;;;6.62;100.00
81352;BME280;70809;52.184;13.422;2024-03-23T06:06:17;100102.06;;;6.62;100.00
81352;BME280;70809;52.184;13.422;2024-03-23T06:07:17;100105.66;;;6.68;100.00
81352;BME280;70809;52.184;13.422;2024-03-23T06:08:18;100097.06;;;6.76;100.00
81352;BME280;70809;52.184;13.422;2024-03-23T06:09:19;100097.91;;;6.74;100.00
81352;BME280;70809;52.184;13.422;2024-03-23T06:10:19;100107.56;;;6.76;100.00
81352;BME280;70809;52.184;13.422;2024-03-23T06:11:20;100098.75;;;6.71;100.00